createdAt,value
2019-05-05T04:32:28.238Z,68.80
2019-05-05T04:34:56.221Z,69.30
2019-05-05T04:37:24.277Z,69.00
2019-05-05T04:39:53.723Z,68.30
2019-05-05T04:42:21.923Z,68.40
2019-05-05T04:44:50.001Z,67.40
2019-05-05T04:47:19.623Z,65.70
2019-05-05T04:49:58.028Z,67.30
2019-05-05T04:52:27.715Z,68.30
2019-05-05T04:54:55.936Z,66.00
2019-05-05T04:57:24.136Z,65.50
2019-05-05T04:59:53.941Z,67.30
2019-05-05T05:02:38.800Z,65.60
2019-05-05T05:05:08.496Z,65.00
2019-05-05T05:07:36.485Z,64.80
2019-05-05T05:10:05.648Z,65.00
2019-05-05T05:12:34.146Z,64.80
2019-05-05T05:15:04.285Z,64.30
2019-05-05T05:17:33.873Z,64.90
2019-05-05T05:20:03.653Z,65.90
2019-05-05T05:22:33.340Z,64.50
2019-05-05T05:25:04.321Z,63.40
2019-05-05T05:27:33.582Z,64.20
2019-05-05T05:30:01.650Z,62.60
2019-05-05T05:32:29.667Z,62.30
2019-05-05T05:34:57.664Z,62.30
2019-05-05T05:37:25.658Z,60.30
2019-05-05T05:40:01.416Z,61.70
2019-05-05T05:42:29.415Z,61.60
2019-05-05T05:44:59.128Z,61.40
2019-05-05T05:47:45.256Z,62.50
2019-05-05T05:50:20.699Z,64.40
2019-05-05T05:52:48.684Z,62.40
2019-05-05T05:55:16.788Z,60.70
2019-05-05T05:57:44.798Z,59.60
2019-05-05T06:00:14.526Z,63.40
2019-05-05T06:02:43.914Z,61.90
2019-05-05T06:05:12.200Z,62.40
2019-05-05T06:07:40.206Z,60.00
2019-05-05T06:10:21.083Z,61.80
2019-05-05T06:12:40.383Z,61.20
2019-05-05T06:15:08.457Z,61.00
2019-05-05T06:17:37.357Z,60.50
2019-05-05T06:20:06.899Z,59.00
2019-05-05T06:22:34.912Z,58.40
2019-05-05T06:25:06.135Z,59.70
2019-05-05T06:27:34.202Z,58.30
2019-05-05T06:30:04.347Z,59.30
2019-05-05T06:32:34.135Z,59.10
2019-05-05T06:35:03.696Z,58.50
2019-05-05T06:37:36.177Z,60.20
2019-05-05T06:40:07.749Z,59.30
2019-05-05T06:42:37.377Z,58.60
2019-05-05T06:45:11.172Z,58.20
2019-05-05T06:47:41.713Z,57.40
2019-05-05T06:50:09.866Z,58.20
2019-05-05T06:52:44.288Z,58.40
2019-05-05T06:55:07.824Z,55.00
2019-05-05T06:57:35.861Z,55.90
2019-05-05T07:00:05.650Z,57.10
2019-05-05T07:02:35.729Z,57.20
2019-05-05T07:05:05.073Z,56.30
2019-05-05T07:07:34.263Z,56.60
2019-05-05T07:10:06.380Z,56.80
2019-05-05T07:12:34.831Z,56.70
2019-05-05T07:15:07.130Z,57.30
2019-05-05T07:17:35.448Z,55.30
2019-05-05T07:20:05.737Z,55.30
2019-05-05T07:22:34.666Z,55.50
2019-05-05T07:25:04.828Z,56.90
2019-05-05T07:27:33.831Z,58.30
2019-05-05T07:30:02.087Z,57.50
2019-05-05T07:32:30.205Z,57.00
2019-05-05T07:35:09.832Z,56.80
2019-05-05T07:37:39.764Z,58.50
2019-05-05T07:40:07.820Z,57.80
2019-05-05T07:42:35.874Z,58.20
2019-05-05T07:45:18.506Z,58.30
2019-05-05T07:47:35.801Z,57.50
2019-05-05T07:50:06.093Z,58.40
2019-05-05T07:52:36.081Z,58.10
2019-05-05T07:55:05.276Z,56.90
2019-05-05T07:57:34.213Z,54.40
2019-05-05T08:00:02.305Z,54.60
2019-05-05T08:02:30.440Z,54.70
2019-05-05T08:04:58.423Z,56.10
2019-05-05T08:07:28.479Z,56.70
2019-05-05T08:09:56.475Z,54.20
2019-05-05T08:12:25.975Z,55.30
2019-05-05T08:14:55.738Z,55.00
2019-05-05T08:17:34.145Z,55.70
2019-05-05T08:20:06.698Z,56.10
2019-05-05T08:22:40.162Z,56.90
2019-05-05T08:25:10.221Z,55.50
2019-05-05T08:27:47.139Z,55.70
2019-05-05T08:30:29.410Z,55.10
2019-05-05T08:32:58.462Z,54.90
2019-05-05T08:35:27.127Z,54.40
2019-05-05T08:37:55.133Z,53.50
2019-05-05T08:40:24.022Z,53.50
2019-05-05T08:42:53.911Z,53.60
2019-05-05T08:45:24.566Z,54.70
2019-05-05T08:47:54.221Z,54.00
2019-05-05T08:50:26.777Z,55.20
2019-05-05T08:52:54.410Z,53.20
2019-05-05T08:55:24.462Z,54.20
2019-05-05T08:57:54.002Z,53.70
2019-05-05T09:00:24.308Z,54.10
2019-05-05T09:02:51.830Z,51.80
2019-05-05T09:05:23.671Z,51.80
2019-05-05T09:07:51.133Z,53.00
2019-05-05T09:10:19.125Z,52.60
2019-05-05T09:12:47.305Z,52.10
2019-05-05T09:15:15.440Z,51.30
2019-05-05T09:17:43.942Z,51.30
2019-05-05T09:20:13.646Z,51.60
2019-05-05T09:22:41.878Z,52.10
2019-05-05T09:25:28.954Z,53.00
2019-05-05T09:27:58.612Z,52.70
2019-05-05T09:30:28.164Z,48.00
2019-05-05T09:32:56.177Z,49.20
2019-05-05T09:35:24.278Z,50.50
2019-05-05T09:37:53.609Z,49.70
2019-05-05T09:40:24.249Z,51.40
2019-05-05T09:42:53.574Z,51.30
2019-05-05T09:45:21.860Z,50.20
2019-05-05T09:47:49.871Z,48.40
2019-05-05T09:50:17.924Z,46.90
2019-05-05T09:52:46.910Z,48.10
2019-05-05T09:55:14.928Z,49.40
2019-05-05T09:57:43.801Z,49.50
2019-05-05T10:00:13.980Z,50.90
2019-05-05T10:02:44.158Z,51.90
2019-05-05T10:05:14.556Z,51.40
2019-05-05T10:07:44.061Z,50.60
2019-05-05T10:10:13.787Z,50.70
2019-05-05T10:12:44.388Z,50.00
2019-05-05T10:15:14.006Z,50.00
2019-05-05T10:17:42.256Z,48.10
2019-05-05T10:20:10.620Z,47.00
2019-05-05T10:22:38.693Z,46.70
2019-05-05T10:25:10.615Z,47.00
2019-05-05T10:27:44.966Z,45.70
2019-05-05T10:30:10.627Z,44.80
2019-05-05T10:32:38.308Z,45.50
2019-05-05T10:35:06.868Z,47.30
2019-05-05T10:37:34.928Z,46.90
2019-05-05T10:40:04.079Z,47.90
2019-05-05T10:42:50.292Z,47.90
2019-05-05T10:45:20.984Z,47.20
2019-05-05T10:47:49.530Z,46.60
2019-05-05T10:50:17.662Z,45.80
2019-05-05T10:52:45.732Z,46.80
2019-05-05T10:55:14.541Z,48.70
2019-05-05T10:57:43.569Z,48.30
2019-05-05T11:00:15.426Z,45.10
2019-05-05T11:02:42.426Z,45.30
2019-05-05T11:05:11.912Z,44.10
2019-05-05T11:07:39.982Z,44.70
2019-05-05T11:10:08.157Z,43.60
2019-05-05T11:12:37.148Z,43.60
2019-05-05T11:15:06.612Z,45.40
2019-05-05T11:17:34.590Z,44.20
2019-05-05T11:20:03.805Z,45.80
2019-05-05T11:22:31.827Z,44.90
2019-05-05T11:25:01.117Z,46.20
2019-05-05T11:27:29.433Z,45.70
2019-05-05T11:30:17.251Z,45.20
2019-05-05T11:33:04.011Z,44.60
2019-05-05T11:35:44.369Z,43.80
2019-05-05T11:38:14.153Z,42.40
2019-05-05T11:40:43.968Z,41.60
2019-05-05T11:43:14.064Z,42.40
2019-05-05T11:45:43.684Z,40.80
2019-05-05T11:48:11.450Z,41.60
2019-05-05T11:50:39.539Z,39.80
2019-05-05T11:53:07.528Z,38.60
2019-05-05T11:55:35.519Z,38.70
2019-05-05T11:58:03.728Z,38.90
2019-05-05T12:00:31.827Z,40.20
2019-05-05T12:02:59.810Z,40.00
2019-05-05T12:05:27.884Z,40.00
2019-05-05T12:07:55.855Z,39.00
2019-05-05T12:10:27.995Z,40.00
2019-05-05T12:12:56.852Z,39.60
2019-05-05T12:15:25.520Z,38.80
2019-05-05T12:17:54.567Z,39.40
2019-05-05T12:20:33.694Z,39.80
2019-05-05T12:23:07.956Z,38.10
2019-05-05T12:25:37.849Z,40.80
2019-05-05T12:28:07.528Z,39.50
2019-05-05T12:30:35.522Z,36.20
2019-05-05T12:33:04.787Z,37.30
2019-05-05T12:35:34.031Z,38.10
2019-05-05T12:38:02.062Z,40.30
2019-05-05T12:40:30.075Z,38.40
2019-05-05T12:42:58.158Z,38.20
2019-05-05T12:45:27.838Z,38.30
2019-05-05T12:48:16.085Z,38.00
2019-05-05T12:50:44.384Z,38.50
2019-05-05T12:53:14.412Z,36.90
2019-05-05T12:55:44.420Z,37.60
2019-05-05T12:58:13.959Z,41.80
2019-05-05T13:00:43.845Z,42.30
2019-05-05T13:03:13.525Z,43.30
2019-05-05T13:05:41.731Z,45.50
2019-05-05T13:08:09.782Z,45.20
2019-05-05T13:10:38.758Z,47.00
2019-05-05T13:13:07.850Z,46.70
2019-05-05T13:15:35.953Z,43.60
2019-05-05T13:18:05.910Z,44.60
2019-05-05T13:20:41.742Z,46.20
2019-05-05T13:23:29.447Z,46.40
2019-05-05T13:26:04.212Z,46.70
2019-05-05T13:28:31.617Z,47.40
2019-05-05T13:30:59.871Z,46.00
2019-05-05T13:33:30.774Z,43.30
2019-05-05T13:35:58.593Z,39.30
2019-05-05T13:38:26.657Z,39.30
2019-05-05T13:40:55.652Z,39.30
2019-05-05T13:43:23.885Z,36.50
2019-05-05T13:45:56.550Z,37.40
2019-05-05T13:48:25.475Z,41.20
2019-05-05T13:50:55.448Z,41.10
2019-05-05T13:53:23.741Z,42.20
2019-05-05T13:55:58.358Z,40.50
2019-05-05T13:58:24.833Z,40.90
2019-05-05T14:00:52.224Z,41.80
2019-05-05T14:03:20.295Z,41.00
2019-05-05T14:05:48.370Z,44.10
2019-05-05T14:08:17.113Z,44.70
2019-05-05T14:10:45.784Z,41.40
2019-05-05T14:13:15.251Z,42.50
2019-05-05T14:15:44.053Z,43.30
2019-05-05T14:18:14.185Z,42.20
2019-05-05T14:20:43.569Z,41.60
2019-05-05T14:23:11.666Z,40.80
2019-05-05T14:25:39.966Z,42.50
2019-05-05T14:28:08.947Z,41.70
2019-05-05T14:30:38.581Z,42.20
2019-05-05T14:33:08.334Z,42.70
2019-05-05T14:35:39.648Z,41.60
2019-05-05T14:38:09.488Z,40.60
2019-05-05T14:40:37.494Z,40.30
2019-05-05T14:43:05.501Z,41.00
2019-05-05T14:45:34.051Z,40.50
2019-05-05T14:48:03.966Z,39.80
2019-05-05T14:50:34.613Z,39.90
2019-05-05T14:53:03.946Z,38.40
2019-05-05T14:55:33.484Z,38.00
2019-05-05T14:58:03.804Z,39.50
2019-05-05T15:00:33.539Z,38.60
2019-05-05T15:03:01.211Z,38.10
2019-05-05T15:08:38.854Z,37.70
2019-05-05T15:11:08.488Z,37.80
2019-05-05T15:13:36.551Z,38.90
2019-05-05T15:16:04.832Z,40.10
2019-05-05T15:18:34.616Z,39.30
2019-05-05T15:21:02.795Z,39.80
2019-05-05T15:23:50.200Z,38.10
2019-05-05T15:26:19.852Z,38.40
2019-05-05T15:29:00.932Z,38.80
2019-05-05T15:31:23.780Z,39.80
2019-05-05T15:33:53.572Z,39.20
2019-05-05T15:36:24.221Z,40.80
2019-05-05T15:38:51.893Z,40.20
2019-05-05T15:41:19.956Z,39.10
2019-05-05T15:43:47.995Z,39.20
2019-05-05T15:46:15.982Z,40.10
2019-05-05T15:48:43.990Z,40.30
2019-05-05T15:51:11.979Z,40.00
2019-05-05T15:53:40.069Z,39.70
2019-05-05T15:56:08.054Z,38.70
2019-05-05T15:58:36.148Z,38.00
2019-05-05T16:01:25.028Z,36.20
2019-05-05T16:03:54.278Z,34.90
2019-05-05T16:06:23.716Z,36.60
2019-05-05T16:08:54.468Z,34.60
2019-05-05T16:11:23.367Z,35.00
2019-05-05T16:13:51.497Z,36.20
2019-05-05T16:16:37.763Z,35.80
2019-05-05T16:19:10.628Z,37.20
2019-05-05T16:21:40.319Z,37.80
2019-05-05T16:24:15.885Z,39.50
2019-05-05T16:26:43.883Z,40.40
2019-05-05T16:29:14.719Z,41.20
2019-05-05T16:31:53.994Z,40.40
2019-05-05T16:37:03.869Z,42.10
2019-05-05T16:39:33.624Z,44.20
2019-05-05T16:42:03.511Z,45.10
2019-05-05T16:44:50.902Z,45.30
2019-05-05T16:47:19.011Z,44.70
2019-05-05T16:49:47.104Z,45.40
2019-05-05T16:52:16.878Z,45.10
2019-05-05T16:55:06.164Z,43.90
2019-05-05T16:57:36.634Z,44.50
2019-05-05T17:00:05.518Z,43.30
2019-05-05T17:02:35.912Z,39.10
2019-05-05T17:05:04.523Z,37.00
2019-05-05T17:07:34.319Z,38.00
2019-05-05T17:10:06.030Z,37.50
2019-05-05T17:12:35.572Z,37.90
2019-05-05T17:15:04.663Z,38.20
2019-05-05T17:17:49.539Z,39.10
2019-05-05T17:20:19.363Z,39.00
2019-05-05T17:22:49.106Z,40.10
2019-05-05T17:25:18.562Z,39.50
2019-05-05T17:27:50.828Z,40.30
2019-05-05T17:30:19.118Z,41.30
2019-05-05T17:32:47.165Z,39.50
2019-05-05T17:35:16.328Z,38.50
2019-05-05T17:37:44.702Z,38.50
2019-05-05T17:40:20.557Z,38.40
2019-05-05T17:42:53.605Z,37.80
2019-05-05T17:45:29.262Z,37.30
2019-05-05T17:47:58.930Z,37.40
2019-05-05T17:50:29.261Z,37.10
2019-05-05T17:53:03.097Z,36.60
2019-05-05T17:55:36.181Z,37.90
2019-05-05T17:58:05.435Z,38.10
2019-05-05T18:00:35.536Z,38.50
2019-05-05T18:03:04.362Z,37.30
2019-05-05T18:05:51.493Z,38.10
2019-05-05T18:08:39.715Z,38.20
2019-05-05T18:11:09.604Z,39.10
2019-05-05T18:13:43.621Z,38.80
2019-05-05T18:16:14.025Z,39.10
2019-05-05T18:18:44.441Z,39.40
2019-05-05T18:21:14.464Z,39.30
2019-05-05T18:23:43.942Z,39.30
2019-05-05T18:26:13.651Z,40.50
2019-05-05T18:28:44.348Z,39.90
2019-05-05T18:31:13.905Z,40.30
2019-05-05T18:33:42.112Z,41.00
2019-05-05T18:36:11.360Z,41.10
2019-05-05T18:38:39.694Z,41.50
2019-05-05T18:41:20.377Z,40.20
2019-05-05T18:43:50.998Z,40.70
2019-05-05T18:46:19.782Z,40.90
2019-05-05T18:48:48.064Z,41.90
2019-05-05T18:51:16.404Z,43.00
2019-05-05T18:53:45.792Z,42.80
2019-05-05T18:56:14.469Z,41.70
2019-05-05T18:58:44.570Z,41.80
2019-05-05T19:01:17.028Z,42.10
2019-05-05T19:03:54.454Z,42.60
2019-05-05T19:06:24.630Z,44.10
2019-05-05T19:09:01.801Z,44.80
2019-05-05T19:11:27.225Z,45.60
2019-05-05T19:13:55.306Z,44.70
2019-05-05T19:16:23.812Z,44.20
2019-05-05T19:18:55.387Z,44.50
2019-05-05T19:21:24.880Z,46.00
2019-05-05T19:23:54.179Z,46.50
2019-05-05T19:26:24.050Z,46.60
2019-05-05T19:28:54.615Z,47.10
2019-05-05T19:31:22.158Z,46.80
2019-05-05T19:33:50.464Z,47.00
2019-05-05T19:36:18.850Z,46.90
2019-05-05T19:38:47.037Z,47.00
2019-05-05T19:41:15.247Z,47.60
2019-05-05T19:43:54.393Z,47.40
2019-05-05T19:46:24.942Z,47.20
2019-05-05T19:49:07.144Z,46.30
2019-05-05T19:51:36.682Z,46.30
2019-05-05T19:54:04.928Z,46.70
2019-05-05T19:56:33.909Z,46.40
2019-05-05T19:59:04.257Z,47.00
2019-05-05T20:01:37.126Z,47.00
2019-05-05T20:04:02.111Z,47.40
2019-05-05T20:06:30.210Z,47.20
2019-05-05T20:08:58.343Z,47.50
2019-05-05T20:11:26.402Z,48.10
2019-05-05T20:14:06.967Z,48.50
2019-05-05T20:16:26.195Z,48.80
2019-05-05T20:18:54.741Z,48.70
2019-05-05T20:21:24.100Z,48.70
2019-05-05T20:23:52.727Z,49.10
2019-05-05T20:26:23.831Z,49.60
2019-05-05T20:28:55.297Z,49.10
2019-05-05T20:31:23.703Z,49.40
2019-05-05T20:33:54.401Z,49.60
2019-05-05T20:36:27.271Z,49.80
2019-05-05T20:38:55.841Z,50.50
2019-05-05T20:41:25.046Z,50.80
2019-05-05T20:43:54.289Z,51.40
2019-05-05T20:46:23.737Z,51.50
2019-05-05T20:48:54.300Z,51.80
2019-05-05T20:51:21.772Z,52.00
2019-05-05T20:53:49.853Z,51.40
2019-05-05T20:56:18.026Z,51.10
2019-05-05T20:58:46.080Z,51.40
2019-05-05T21:01:14.238Z,51.30
2019-05-05T21:03:42.317Z,51.50
2019-05-05T21:06:10.385Z,51.70
2019-05-05T21:08:38.460Z,52.10
2019-05-05T21:11:06.582Z,52.30
2019-05-05T21:13:34.661Z,52.60
2019-05-05T21:16:03.472Z,52.80
2019-05-05T21:18:31.595Z,53.10
2019-05-05T21:21:01.469Z,53.00
2019-05-05T21:23:34.361Z,53.00
2019-05-05T21:26:04.316Z,53.70
2019-05-05T21:28:33.596Z,53.00
2019-05-05T21:31:01.792Z,52.50
2019-05-05T21:33:29.875Z,52.30
2019-05-05T21:35:57.879Z,52.50
2019-05-05T21:38:25.938Z,52.20
2019-05-05T21:40:54.004Z,51.60
2019-05-05T21:43:22.011Z,52.40
2019-05-05T21:45:49.993Z,53.00
2019-05-05T21:48:18.047Z,53.60
2019-05-05T21:50:50.941Z,54.30
2019-05-05T21:53:29.742Z,54.60
2019-05-05T21:56:08.767Z,54.80
2019-05-05T21:58:38.430Z,55.40
2019-05-05T22:01:08.230Z,55.90
2019-05-05T22:03:39.519Z,55.80
2019-05-05T22:06:07.561Z,55.80
2019-05-05T22:08:35.982Z,55.60
2019-05-05T22:11:04.622Z,55.80
2019-05-05T22:13:36.222Z,56.20
2019-05-05T22:16:04.094Z,56.00
2019-05-05T22:18:32.052Z,56.20
2019-05-05T22:21:01.755Z,56.10
2019-05-05T22:23:29.800Z,56.00
2019-05-05T22:25:57.797Z,55.90
2019-05-05T22:28:26.540Z,56.10
2019-05-05T22:30:55.565Z,56.30
2019-05-05T22:33:24.656Z,56.40
2019-05-05T22:35:54.817Z,55.90
2019-05-05T22:38:24.585Z,56.20
2019-05-05T22:40:54.510Z,55.30
2019-05-05T22:43:23.901Z,55.60
2019-05-05T22:45:54.168Z,54.70
2019-05-05T22:48:23.827Z,54.20
2019-05-05T22:50:51.588Z,55.30
2019-05-05T22:53:19.585Z,55.80
2019-05-05T22:55:47.554Z,56.60
2019-05-05T22:58:15.646Z,56.90
